createdAt,value
2018-11-28T00:00:02.237Z,1022.82
2018-11-28T00:01:02.189Z,1022.81
2018-11-28T00:02:02.143Z,1022.80
2018-11-28T00:03:02.094Z,1022.81
2018-11-28T00:04:02.048Z,1022.81
2018-11-28T00:05:02.001Z,1022.81
2018-11-28T00:06:01.950Z,1022.77
2018-11-28T00:07:01.902Z,1022.77
2018-11-28T00:08:01.858Z,1022.72
2018-11-28T00:09:01.807Z,1022.75
2018-11-28T00:10:01.760Z,1022.74
2018-11-28T00:11:01.712Z,1022.72
2018-11-28T00:12:01.663Z,1022.71
2018-11-28T00:13:01.616Z,1022.70
2018-11-28T00:14:01.621Z,1022.70
2018-11-28T00:15:01.576Z,1022.69
2018-11-28T00:16:01.522Z,1022.66
2018-11-28T00:17:01.425Z,1022.64
2018-11-28T00:18:01.377Z,1022.60
2018-11-28T00:19:01.331Z,1022.61
2018-11-28T00:20:01.281Z,1022.61
2018-11-28T00:21:01.235Z,1022.59
2018-11-28T00:22:01.186Z,1022.61
2018-11-28T00:23:01.139Z,1022.58
2018-11-28T00:24:01.090Z,1022.60
2018-11-28T00:25:01.043Z,1022.63
2018-11-28T00:26:00.994Z,1022.67
2018-11-28T00:27:00.948Z,1022.65
2018-11-28T00:28:00.899Z,1022.66
2018-11-28T00:29:00.854Z,1022.66
2018-11-28T00:30:00.806Z,1022.59
2018-11-28T00:31:00.756Z,1022.62
2018-11-28T00:32:00.709Z,1022.55
2018-11-28T00:33:00.664Z,1022.57
2018-11-28T00:34:00.614Z,1022.59
2018-11-28T00:35:00.566Z,1022.58
2018-11-28T00:36:00.518Z,1022.54
2018-11-28T00:37:00.471Z,1022.58
2018-11-28T00:38:00.422Z,1022.51
2018-11-28T00:39:00.374Z,1022.55
2018-11-28T00:40:00.326Z,1022.52
2018-11-28T00:41:00.443Z,1022.51
2018-11-28T00:42:00.231Z,1022.48
2018-11-28T00:43:00.184Z,1022.48
2018-11-28T00:44:00.186Z,1022.47
2018-11-28T00:45:00.089Z,1022.51
2018-11-28T00:46:00.044Z,1022.52
2018-11-28T00:46:59.993Z,1022.51
2018-11-28T00:47:59.947Z,1022.60
2018-11-28T00:48:59.896Z,1022.62
2018-11-28T00:49:59.850Z,1022.65
2018-11-28T00:50:59.803Z,1022.64
2018-11-28T00:51:59.753Z,1022.65
2018-11-28T00:52:59.706Z,1022.65
2018-11-28T00:53:59.664Z,1022.67
2018-11-28T00:54:59.611Z,1022.63
2018-11-28T00:55:59.563Z,1022.66
2018-11-28T00:56:59.514Z,1022.68
2018-11-28T00:57:59.470Z,1022.69
2018-11-28T00:58:59.421Z,1022.74
2018-11-28T00:59:59.380Z,1022.72
2018-11-28T01:00:59.324Z,1022.78
2018-11-28T01:01:59.277Z,1022.80
2018-11-28T01:02:59.231Z,1022.78
2018-11-28T01:03:59.181Z,1022.80
2018-11-28T01:04:59.136Z,1022.79
2018-11-28T01:05:59.090Z,1022.79
2018-11-28T01:06:59.038Z,1022.81
2018-11-28T01:07:58.991Z,1022.83
2018-11-28T01:08:58.943Z,1022.77
2018-11-28T01:09:58.895Z,1022.84
2018-11-28T01:10:58.850Z,1022.85
2018-11-28T01:11:58.798Z,1022.89
2018-11-28T01:12:58.751Z,1022.88
2018-11-28T01:13:58.705Z,1022.89
2018-11-28T01:14:58.657Z,1022.91
2018-11-28T01:15:58.608Z,1022.96
2018-11-28T01:16:58.561Z,1022.97
2018-11-28T01:17:58.562Z,1022.98
2018-11-28T01:18:58.466Z,1022.93
2018-11-28T01:19:58.420Z,1022.94
2018-11-28T01:20:58.371Z,1022.95
2018-11-28T01:21:58.321Z,1022.99
2018-11-28T01:22:58.424Z,1023.00
2018-11-28T01:23:58.227Z,1023.01
2018-11-28T01:24:58.178Z,1023.03
2018-11-28T01:25:58.181Z,1023.02
2018-11-28T01:26:58.084Z,1023.08
2018-11-28T01:27:58.034Z,1023.07
2018-11-28T01:28:57.992Z,1023.04
2018-11-28T01:29:57.939Z,1023.06
2018-11-28T01:30:57.898Z,1023.06
2018-11-28T01:31:57.845Z,1022.99
2018-11-28T01:32:57.796Z,1023.03
2018-11-28T01:33:57.750Z,1023.02
2018-11-28T01:34:57.702Z,1022.97
2018-11-28T01:35:57.655Z,1022.97
2018-11-28T01:36:57.606Z,1022.98
2018-11-28T01:37:57.558Z,1022.96
2018-11-28T01:38:57.511Z,1022.95
2018-11-28T01:39:57.462Z,1022.99
2018-11-28T01:40:57.415Z,1022.94
2018-11-28T01:41:57.368Z,1022.96
2018-11-28T01:42:57.320Z,1022.94
2018-11-28T01:43:57.271Z,1022.93
2018-11-28T01:44:57.224Z,1022.99
2018-11-28T01:45:57.176Z,1023.00
2018-11-28T01:46:57.129Z,1022.99
2018-11-28T01:47:57.081Z,1022.91
2018-11-28T01:48:57.033Z,1022.94
2018-11-28T01:49:56.985Z,1022.94
2018-11-28T01:50:56.937Z,1022.96
2018-11-28T01:51:56.888Z,1022.89
2018-11-28T01:52:56.840Z,1022.95
2018-11-28T01:53:56.792Z,1022.99
2018-11-28T01:54:56.746Z,1022.98
2018-11-28T01:55:56.748Z,1022.98
2018-11-28T01:56:56.700Z,1022.95
2018-11-28T01:57:56.602Z,1022.91
2018-11-28T01:58:56.604Z,1022.93
2018-11-28T01:59:56.505Z,1022.89
2018-11-28T02:00:56.458Z,1022.93
2018-11-28T02:01:56.411Z,1022.93
2018-11-28T02:02:56.363Z,1022.92
2018-11-28T02:03:56.315Z,1022.94
2018-11-28T02:04:56.267Z,1022.98
2018-11-28T02:05:56.220Z,1022.96
2018-11-28T02:06:56.177Z,1022.92
2018-11-28T02:07:56.124Z,1022.89
2018-11-28T02:08:56.076Z,1022.89
2018-11-28T02:09:56.029Z,1022.91
2018-11-28T02:10:55.981Z,1022.88
2018-11-28T02:11:55.932Z,1022.88
2018-11-28T02:12:55.885Z,1022.88
2018-11-28T02:13:55.837Z,1022.86
2018-11-28T02:14:55.789Z,1022.90
2018-11-28T02:15:55.741Z,1022.92
2018-11-28T02:16:55.693Z,1022.96
2018-11-28T02:17:55.651Z,1022.91
2018-11-28T02:18:55.598Z,1022.88
2018-11-28T02:19:55.548Z,1022.93
2018-11-28T02:20:55.501Z,1022.92
2018-11-28T02:21:55.454Z,1022.94
2018-11-28T02:22:55.406Z,1022.95
2018-11-28T02:23:55.358Z,1022.93
2018-11-28T02:24:55.310Z,1022.97
2018-11-28T02:25:55.265Z,1023.01
2018-11-28T02:26:55.214Z,1022.98
2018-11-28T02:27:55.167Z,1023.01
2018-11-28T02:28:55.120Z,1022.99
2018-11-28T02:29:55.073Z,1022.96
2018-11-28T02:30:55.025Z,1022.94
2018-11-28T02:31:54.976Z,1022.95
2018-11-28T02:32:54.979Z,1022.95
2018-11-28T02:33:54.881Z,1022.97
2018-11-28T02:34:54.833Z,1022.99
2018-11-28T02:35:54.784Z,1022.99
2018-11-28T02:36:54.738Z,1023.01
2018-11-28T02:37:54.690Z,1023.04
2018-11-28T02:38:54.642Z,1023.07
2018-11-28T02:39:54.598Z,1023.08
2018-11-28T02:40:54.545Z,1023.09
2018-11-28T02:41:54.499Z,1023.11
2018-11-28T02:42:54.451Z,1023.09
2018-11-28T02:43:54.402Z,1023.12
2018-11-28T02:44:54.354Z,1023.12
2018-11-28T02:45:54.307Z,1023.09
2018-11-28T02:46:54.264Z,1023.12
2018-11-28T02:47:54.211Z,1023.12
2018-11-28T02:48:54.163Z,1023.14
2018-11-28T02:49:54.117Z,1023.10
2018-11-28T02:50:54.069Z,1023.08
2018-11-28T02:51:54.025Z,1023.07
2018-11-28T02:52:54.074Z,1023.04
2018-11-28T02:53:53.925Z,1023.04
2018-11-28T02:54:53.878Z,1023.05
2018-11-28T02:55:53.880Z,1023.04
2018-11-28T02:56:53.832Z,1023.08
2018-11-28T02:57:53.785Z,1023.03
2018-11-28T02:58:53.688Z,1023.06
2018-11-28T02:59:53.639Z,1023.07
2018-11-28T03:00:53.592Z,1023.08
2018-11-28T03:01:53.544Z,1023.08
2018-11-28T03:02:53.496Z,1023.06
2018-11-28T03:03:53.451Z,1023.06
2018-11-28T03:04:53.401Z,1023.08
2018-11-28T03:05:53.358Z,1023.11
2018-11-28T03:06:53.305Z,1023.07
2018-11-28T03:07:53.262Z,1023.13
2018-11-28T03:08:53.210Z,1023.14
2018-11-28T03:09:53.163Z,1023.18
2018-11-28T03:10:53.114Z,1023.19
2018-11-28T03:11:53.066Z,1023.22
2018-11-28T03:12:53.022Z,1023.18
2018-11-28T03:13:52.972Z,1023.17
2018-11-28T03:14:52.925Z,1023.21
2018-11-28T03:15:52.875Z,1023.20
2018-11-28T03:16:52.829Z,1023.23
2018-11-28T03:17:52.784Z,1023.20
2018-11-28T03:18:52.733Z,1023.19
2018-11-28T03:19:52.683Z,1023.20
2018-11-28T03:20:52.637Z,1023.23
2018-11-28T03:21:52.592Z,1023.25
2018-11-28T03:22:52.549Z,1023.28
2018-11-28T03:23:52.495Z,1023.27
2018-11-28T03:24:52.446Z,1023.27
2018-11-28T03:25:52.410Z,1023.28
2018-11-28T03:26:52.355Z,1023.29
2018-11-28T03:27:52.304Z,1023.28
2018-11-28T03:28:52.333Z,1023.28
2018-11-28T03:29:52.209Z,1023.30
2018-11-28T03:30:52.170Z,1023.29
2018-11-28T03:31:52.112Z,1023.29
2018-11-28T03:32:52.066Z,1023.28
2018-11-28T03:33:52.018Z,1023.27
2018-11-28T03:34:51.971Z,1023.26
2018-11-28T03:35:51.922Z,1023.27
2018-11-28T03:36:51.875Z,1023.31
2018-11-28T03:37:51.827Z,1023.32
2018-11-28T03:38:51.780Z,1023.36
2018-11-28T03:39:51.731Z,1023.32
2018-11-28T03:40:51.684Z,1023.36
2018-11-28T03:41:51.644Z,1023.36
2018-11-28T03:42:51.591Z,1023.39
2018-11-28T03:43:51.541Z,1023.34
2018-11-28T03:44:51.501Z,1023.36
2018-11-28T03:45:51.446Z,1023.39
2018-11-28T03:46:51.400Z,1023.36
2018-11-28T03:47:51.351Z,1023.34
2018-11-28T03:48:51.303Z,1023.35
2018-11-28T03:49:51.260Z,1023.37
2018-11-28T03:50:51.208Z,1023.34
2018-11-28T03:51:51.161Z,1023.38
2018-11-28T03:52:51.115Z,1023.39
2018-11-28T03:53:51.070Z,1023.40
2018-11-28T03:54:51.018Z,1023.44
2018-11-28T03:55:50.969Z,1023.46
2018-11-28T03:56:50.922Z,1023.48
2018-11-28T03:57:50.875Z,1023.50
2018-11-28T03:58:50.827Z,1023.51
2018-11-28T03:59:50.779Z,1023.49
2018-11-28T04:00:50.736Z,1023.47
2018-11-28T04:01:50.684Z,1023.42
2018-11-28T04:02:50.638Z,1023.42
2018-11-28T04:03:50.592Z,1023.42
2018-11-28T04:04:50.542Z,1023.45
2018-11-28T04:05:50.494Z,1023.48
2018-11-28T04:06:50.497Z,1023.45
2018-11-28T04:07:50.398Z,1023.51
2018-11-28T04:08:50.351Z,1023.50
2018-11-28T04:09:50.307Z,1023.53
2018-11-28T04:10:50.257Z,1023.52
2018-11-28T04:11:50.208Z,1023.60
2018-11-28T04:12:50.160Z,1023.61
2018-11-28T04:13:50.163Z,1023.62
2018-11-28T04:14:50.085Z,1023.57
2018-11-28T04:15:50.019Z,1023.62
2018-11-28T04:16:49.970Z,1023.60
2018-11-28T04:17:49.923Z,1023.60
2018-11-28T04:18:49.875Z,1023.62
2018-11-28T04:19:49.826Z,1023.61
2018-11-28T04:20:49.778Z,1023.60
2018-11-28T04:21:49.731Z,1023.63
2018-11-28T04:22:49.685Z,1023.62
2018-11-28T04:23:49.637Z,1023.62
2018-11-28T04:24:49.588Z,1023.66
2018-11-28T04:25:49.541Z,1023.63
2018-11-28T04:26:49.504Z,1023.63
2018-11-28T04:27:49.445Z,1023.62
2018-11-28T04:28:49.397Z,1023.66
2018-11-28T04:29:49.350Z,1023.67
2018-11-28T04:30:49.304Z,1023.69
2018-11-28T04:31:49.254Z,1023.67
2018-11-28T04:32:49.209Z,1023.71
2018-11-28T04:33:49.159Z,1023.69
2018-11-28T04:34:49.113Z,1023.66
2018-11-28T04:35:49.064Z,1023.63
2018-11-28T04:36:49.338Z,1023.64
2018-11-28T04:37:48.969Z,1023.64
2018-11-28T04:38:48.920Z,1023.68
2018-11-28T04:39:48.884Z,1023.68
2018-11-28T04:40:48.827Z,1023.68
2018-11-28T04:41:48.779Z,1023.70
2018-11-28T04:42:48.736Z,1023.73
2018-11-28T04:43:48.681Z,1023.73
2018-11-28T04:44:48.634Z,1023.75
2018-11-28T04:45:48.586Z,1023.74
2018-11-28T04:46:48.539Z,1023.74
2018-11-28T04:47:48.501Z,1023.74
2018-11-28T04:48:48.443Z,1023.74
2018-11-28T04:49:48.395Z,1023.72
2018-11-28T04:50:48.349Z,1023.72
2018-11-28T04:51:48.301Z,1023.73
2018-11-28T04:52:48.256Z,1023.75
2018-11-28T04:53:48.209Z,1023.75
2018-11-28T04:54:48.157Z,1023.73
2018-11-28T04:55:48.110Z,1023.70
2018-11-28T04:56:48.067Z,1023.72
2018-11-28T04:57:48.015Z,1023.71
2018-11-28T04:58:47.967Z,1023.73
2018-11-28T04:59:47.918Z,1023.72
2018-11-28T05:00:47.875Z,1023.74
2018-11-28T05:01:47.829Z,1023.71
2018-11-28T05:02:47.777Z,1023.73
2018-11-28T05:03:47.728Z,1023.69
2018-11-28T05:04:47.689Z,1023.66
2018-11-28T05:05:47.633Z,1023.64
2018-11-28T05:06:47.586Z,1023.60
2018-11-28T05:07:47.537Z,1023.61
2018-11-28T05:08:47.490Z,1023.65
2018-11-28T05:09:47.450Z,1023.66
2018-11-28T05:10:47.395Z,1023.66
2018-11-28T05:11:47.349Z,1023.70
2018-11-28T05:12:47.299Z,1023.71
2018-11-28T05:13:47.253Z,1023.71
2018-11-28T05:14:47.204Z,1023.70
2018-11-28T05:15:47.156Z,1023.67
2018-11-28T05:16:47.110Z,1023.72
2018-11-28T05:17:47.061Z,1023.74
2018-11-28T05:18:47.013Z,1023.74
2018-11-28T05:19:46.965Z,1023.76
2018-11-28T05:20:46.917Z,1023.74
2018-11-28T05:21:46.870Z,1023.70
2018-11-28T05:22:46.822Z,1023.73
2018-11-28T05:23:46.774Z,1023.74
2018-11-28T05:24:46.726Z,1023.77
2018-11-28T05:25:46.678Z,1023.79
2018-11-28T05:26:46.632Z,1023.82
2018-11-28T05:27:46.583Z,1023.85
2018-11-28T05:28:46.536Z,1023.84
2018-11-28T05:29:46.488Z,1023.91
2018-11-28T05:30:46.441Z,1023.87
2018-11-28T05:31:46.392Z,1023.87
2018-11-28T05:32:46.346Z,1023.87
2018-11-28T05:33:46.297Z,1023.89
2018-11-28T05:34:46.350Z,1023.89
2018-11-28T05:35:46.202Z,1023.91
2018-11-28T05:36:46.155Z,1023.91
2018-11-28T05:37:46.111Z,1023.94
2018-11-28T05:38:46.059Z,1023.97
2018-11-28T05:39:46.012Z,1023.92
2018-11-28T05:40:45.964Z,1023.95
2018-11-28T05:41:45.920Z,1023.92
2018-11-28T05:42:45.869Z,1023.91
2018-11-28T05:43:45.822Z,1023.90
2018-11-28T05:44:45.773Z,1023.91
2018-11-28T05:45:45.725Z,1023.91
2018-11-28T05:46:45.678Z,1023.87
2018-11-28T05:47:45.631Z,1023.94
2018-11-28T05:48:45.582Z,1023.94
2018-11-28T05:49:45.535Z,1023.91
2018-11-28T05:50:45.488Z,1023.94
2018-11-28T05:51:45.440Z,1023.93
2018-11-28T05:52:45.392Z,1023.95
2018-11-28T05:53:45.344Z,1023.96
2018-11-28T05:54:45.348Z,1024.01
2018-11-28T05:55:45.349Z,1024.01
2018-11-28T05:56:45.618Z,1024.02
2018-11-28T05:57:45.211Z,1024.02
2018-11-28T05:58:45.107Z,1024.01
2018-11-28T05:59:45.058Z,1023.99
2018-11-28T06:00:45.011Z,1024.02
2018-11-28T06:01:44.963Z,1024.00
2018-11-28T06:02:44.916Z,1024.01
2018-11-28T06:03:44.871Z,1023.97
2018-11-28T06:04:44.820Z,1024.07
2018-11-28T06:05:44.772Z,1024.04
2018-11-28T06:06:44.727Z,1024.04
2018-11-28T06:07:44.678Z,1024.10
2018-11-28T06:08:44.629Z,1024.10
2018-11-28T06:09:44.582Z,1024.09
2018-11-28T06:10:44.536Z,1024.08
2018-11-28T06:11:44.487Z,1024.10
2018-11-28T06:12:44.440Z,1024.03
2018-11-28T06:13:44.391Z,1024.06
2018-11-28T06:14:44.345Z,1024.04
2018-11-28T06:15:44.296Z,1024.04
2018-11-28T06:16:44.248Z,1024.07
2018-11-28T06:17:44.202Z,1024.05
2018-11-28T06:18:44.154Z,1024.10
2018-11-28T06:19:44.105Z,1024.12
2018-11-28T06:20:44.058Z,1024.14
2018-11-28T06:21:44.011Z,1024.19
2018-11-28T06:22:43.963Z,1024.18
2018-11-28T06:23:43.914Z,1024.15
2018-11-28T06:24:43.867Z,1024.18
2018-11-28T06:25:43.820Z,1024.16
2018-11-28T06:26:43.772Z,1024.18
2018-11-28T06:27:43.725Z,1024.15
2018-11-28T06:28:43.680Z,1024.13
2018-11-28T06:29:43.632Z,1024.16
2018-11-28T06:30:43.631Z,1024.17
2018-11-28T06:31:43.534Z,1024.21
2018-11-28T06:32:43.487Z,1024.19
2018-11-28T06:33:43.439Z,1024.22
2018-11-28T06:34:43.392Z,1024.17
2018-11-28T06:35:43.342Z,1024.18
2018-11-28T06:36:43.296Z,1024.17
2018-11-28T06:37:43.257Z,1024.13
2018-11-28T06:38:43.202Z,1024.14
2018-11-28T06:39:43.157Z,1024.14
2018-11-28T06:40:43.105Z,1024.16
2018-11-28T06:41:43.058Z,1024.14
2018-11-28T06:42:43.011Z,1024.19
2018-11-28T06:43:42.964Z,1024.20
2018-11-28T06:44:42.916Z,1024.21
2018-11-28T06:45:42.869Z,1024.26
2018-11-28T06:46:42.821Z,1024.28
2018-11-28T06:47:42.772Z,1024.25
2018-11-28T06:48:42.725Z,1024.25
2018-11-28T06:49:42.678Z,1024.28
2018-11-28T06:50:42.629Z,1024.33
2018-11-28T06:51:42.583Z,1024.31
2018-11-28T06:52:42.537Z,1024.32
2018-11-28T06:53:42.487Z,1024.32
2018-11-28T06:54:42.439Z,1024.38
2018-11-28T06:55:42.392Z,1024.31
2018-11-28T06:56:42.351Z,1024.33
2018-11-28T06:57:42.297Z,1024.36
2018-11-28T06:58:42.249Z,1024.36
2018-11-28T06:59:42.201Z,1024.39
2018-11-28T07:00:42.154Z,1024.35
2018-11-28T07:01:42.111Z,1024.38
2018-11-28T07:02:42.062Z,1024.37
2018-11-28T07:03:42.010Z,1024.38
2018-11-28T07:04:42.012Z,1024.38
2018-11-28T07:05:41.916Z,1024.42
2018-11-28T07:06:41.871Z,1024.43
2018-11-28T07:07:41.839Z,1024.43
2018-11-28T07:08:41.771Z,1024.48
2018-11-28T07:09:41.724Z,1024.48
2018-11-28T07:10:41.678Z,1024.46
2018-11-28T07:11:41.629Z,1024.47
2018-11-28T07:12:41.582Z,1024.48
2018-11-28T07:13:41.542Z,1024.49
2018-11-28T07:14:41.486Z,1024.50
2018-11-28T07:15:41.756Z,1024.49
2018-11-28T07:16:41.708Z,1024.51
2018-11-28T07:17:41.345Z,1024.50
2018-11-28T07:18:41.306Z,1024.50
2018-11-28T07:19:41.247Z,1024.55
2018-11-28T07:20:41.201Z,1024.55
2018-11-28T07:21:41.154Z,1024.60
2018-11-28T07:22:41.105Z,1024.59
2018-11-28T07:23:41.061Z,1024.63
2018-11-28T07:24:41.009Z,1024.61
2018-11-28T07:25:40.963Z,1024.61
2018-11-28T07:26:40.915Z,1024.59
2018-11-28T07:27:45.185Z,1024.59
2018-11-28T07:28:40.818Z,1024.59
2018-11-28T07:29:40.771Z,1024.62
2018-11-28T07:30:40.723Z,1024.59
2018-11-28T07:31:40.676Z,1024.67
2018-11-28T07:32:40.629Z,1024.59
2018-11-28T07:33:40.580Z,1024.63
2018-11-28T07:34:40.534Z,1024.65
2018-11-28T07:35:40.485Z,1024.64
2018-11-28T07:36:40.438Z,1024.66
2018-11-28T07:37:40.489Z,1024.69
2018-11-28T07:38:40.342Z,1024.66
2018-11-28T07:39:40.294Z,1024.67
2018-11-28T07:40:40.247Z,1024.68
2018-11-28T07:41:40.199Z,1024.71
2018-11-28T07:42:40.151Z,1024.68
2018-11-28T07:43:40.103Z,1024.77
2018-11-28T07:44:40.968Z,1024.74
2018-11-28T07:45:40.009Z,1024.79
2018-11-28T07:46:40.072Z,1024.77
2018-11-28T07:47:39.913Z,1024.79
2018-11-28T07:48:39.865Z,1024.80
2018-11-28T07:49:39.818Z,1024.83
2018-11-28T07:50:39.770Z,1024.81
2018-11-28T07:51:39.722Z,1024.85
2018-11-28T07:52:39.677Z,1024.85
2018-11-28T07:53:39.628Z,1024.88
2018-11-28T07:54:39.581Z,1024.86
2018-11-28T07:55:39.532Z,1024.89
2018-11-28T07:56:39.485Z,1024.88
2018-11-28T07:57:39.437Z,1024.87
2018-11-28T07:58:39.389Z,1024.90
2018-11-28T07:59:39.340Z,1024.89
2018-11-28T08:00:39.297Z,1024.86
2018-11-28T08:01:39.248Z,1024.87
2018-11-28T08:02:39.200Z,1024.89
2018-11-28T08:03:39.151Z,1024.87
2018-11-28T08:04:39.104Z,1024.91
2018-11-28T08:05:39.060Z,1024.94
2018-11-28T08:06:39.008Z,1024.90
2018-11-28T08:07:38.963Z,1024.91
2018-11-28T08:08:38.914Z,1024.92
2018-11-28T08:09:38.867Z,1024.99
2018-11-28T08:10:38.819Z,1024.96
2018-11-28T08:11:39.022Z,1024.95
2018-11-28T08:12:38.725Z,1024.93
2018-11-28T08:13:38.677Z,1025.01
2018-11-28T08:14:38.628Z,1024.99
2018-11-28T08:15:38.581Z,1025.04
2018-11-28T08:16:38.533Z,1025.00
2018-11-28T08:17:38.488Z,1024.99
2018-11-28T08:18:38.440Z,1024.98
2018-11-28T08:19:38.398Z,1025.03
2018-11-28T08:20:38.351Z,1025.00
2018-11-28T08:21:38.305Z,1025.02
2018-11-28T08:22:38.260Z,1024.96
2018-11-28T08:23:38.216Z,1025.01
2018-11-28T08:24:38.291Z,1025.00
2018-11-28T08:25:38.128Z,1025.00
2018-11-28T08:26:38.088Z,1025.02
2018-11-28T08:27:38.042Z,1024.99
2018-11-28T08:28:38.000Z,1024.96
2018-11-28T08:29:37.959Z,1024.94
2018-11-28T08:30:37.922Z,1024.94
2018-11-28T08:31:37.875Z,1024.94
2018-11-28T08:32:37.836Z,1024.95
2018-11-28T08:33:37.797Z,1025.00
2018-11-28T08:34:37.757Z,1025.02
2018-11-28T08:35:37.716Z,1025.00
2018-11-28T08:36:37.678Z,1025.01
2018-11-28T08:37:37.637Z,1024.97
2018-11-28T08:38:37.599Z,1024.98
2018-11-28T08:39:37.563Z,1024.92
2018-11-28T08:40:37.522Z,1024.90
2018-11-28T08:41:37.484Z,1024.93
2018-11-28T08:42:37.447Z,1024.94
2018-11-28T08:43:37.408Z,1024.97
2018-11-28T08:44:37.370Z,1024.98
2018-11-28T08:45:37.333Z,1025.05
2018-11-28T08:46:37.296Z,1025.05
2018-11-28T08:47:37.256Z,1025.06
2018-11-28T08:48:37.220Z,1025.09
2018-11-28T08:49:37.183Z,1025.00
2018-11-28T08:50:37.145Z,1025.01
2018-11-28T08:51:37.457Z,1025.06
2018-11-28T08:52:37.071Z,1025.01
2018-11-28T08:53:37.034Z,1025.07
2018-11-28T08:54:36.997Z,1025.02
2018-11-28T08:55:36.960Z,1025.03
2018-11-28T08:56:36.924Z,1025.07
2018-11-28T08:57:36.888Z,1025.09
2018-11-28T08:58:36.850Z,1025.12
2018-11-28T08:59:36.811Z,1025.04
2018-11-28T09:00:36.775Z,1025.03
2018-11-28T09:01:36.922Z,1025.03
2018-11-28T09:02:36.705Z,1025.11
2018-11-28T09:03:36.664Z,1024.99
2018-11-28T09:04:36.627Z,1025.00
2018-11-28T09:05:36.589Z,1024.97
2018-11-28T09:06:36.553Z,1025.00
2018-11-28T09:07:36.514Z,1025.04
2018-11-28T09:08:36.479Z,1025.03
2018-11-28T09:09:36.440Z,1025.04
2018-11-28T09:10:36.401Z,1025.05
2018-11-28T09:11:36.361Z,1025.10
2018-11-28T09:12:36.353Z,1025.04
2018-11-28T09:13:36.286Z,1025.06
2018-11-28T09:14:36.247Z,1025.06
2018-11-28T09:15:36.257Z,1025.09
2018-11-28T09:16:36.169Z,1025.08
2018-11-28T09:17:36.131Z,1025.08
2018-11-28T09:18:36.091Z,1025.08
2018-11-28T09:19:36.050Z,1025.12
2018-11-28T09:20:36.012Z,1025.12
2018-11-28T09:21:35.975Z,1025.11
2018-11-28T09:22:35.933Z,1025.17
2018-11-28T09:23:35.891Z,1025.14
2018-11-28T09:24:35.854Z,1025.13
2018-11-28T09:25:35.810Z,1025.12
2018-11-28T09:26:35.769Z,1025.12
2018-11-28T09:27:35.729Z,1025.11
2018-11-28T09:28:35.688Z,1025.13
2018-11-28T09:29:35.654Z,1025.10
2018-11-28T09:30:35.605Z,1025.13
2018-11-28T09:31:35.584Z,1025.12
2018-11-28T09:32:35.838Z,1025.12
2018-11-28T09:33:35.478Z,1025.09
2018-11-28T09:34:35.495Z,1025.12
2018-11-28T09:35:35.400Z,1025.12
2018-11-28T09:36:35.352Z,1025.11
2018-11-28T09:37:35.310Z,1025.14
2018-11-28T09:38:35.267Z,1025.17
2018-11-28T09:39:35.223Z,1025.22
2018-11-28T09:40:35.182Z,1025.18
2018-11-28T09:41:35.137Z,1025.21
2018-11-28T09:42:35.094Z,1025.20
2018-11-28T09:43:35.052Z,1025.16
2018-11-28T09:44:35.008Z,1025.08
2018-11-28T09:45:34.975Z,1025.14
2018-11-28T09:46:34.927Z,1025.14
2018-11-28T09:47:34.927Z,1025.16
2018-11-28T09:48:34.835Z,1025.14
2018-11-28T09:49:34.790Z,1025.15
2018-11-28T09:50:34.753Z,1025.12
2018-11-28T09:51:34.704Z,1025.07
2018-11-28T09:52:34.661Z,1025.06
2018-11-28T09:53:34.617Z,1025.08
2018-11-28T09:54:34.574Z,1025.06
2018-11-28T09:55:34.531Z,1025.09
2018-11-28T09:56:34.488Z,1024.99
2018-11-28T09:57:34.445Z,1025.06
2018-11-28T09:58:34.402Z,1025.01
2018-11-28T09:59:34.358Z,1025.00
2018-11-28T10:00:34.315Z,1024.96
2018-11-28T10:01:34.532Z,1025.03
2018-11-28T10:02:34.230Z,1024.96
2018-11-28T10:03:34.186Z,1024.97
2018-11-28T10:04:34.146Z,1025.04
2018-11-28T10:05:34.196Z,1024.95
2018-11-28T10:06:34.061Z,1025.01
2018-11-28T10:07:34.016Z,1024.96
2018-11-28T10:08:33.977Z,1024.96
2018-11-28T10:09:33.934Z,1024.95
2018-11-28T10:10:33.891Z,1024.98
2018-11-28T10:11:33.849Z,1024.99
2018-11-28T10:12:33.908Z,1025.01
2018-11-28T10:13:33.767Z,1025.01
2018-11-28T10:14:33.725Z,1025.03
2018-11-28T10:15:35.725Z,1025.02
2018-11-28T10:16:33.641Z,1025.03
2018-11-28T10:17:33.622Z,1025.07
2018-11-28T10:18:33.559Z,1025.01
2018-11-28T10:19:33.517Z,1024.97
2018-11-28T10:20:33.577Z,1024.96
2018-11-28T10:21:33.436Z,1024.95
2018-11-28T10:22:33.395Z,1024.99
2018-11-28T10:23:33.352Z,1025.04
2018-11-28T10:24:34.400Z,1024.96
2018-11-28T10:25:33.271Z,1024.98
2018-11-28T10:26:33.231Z,1025.00
2018-11-28T10:27:33.283Z,1025.03
2018-11-28T10:28:33.152Z,1025.04
2018-11-28T10:29:33.110Z,1025.01
2018-11-28T10:30:33.069Z,1024.97
2018-11-28T10:31:33.030Z,1024.92
2018-11-28T10:32:32.987Z,1024.93
2018-11-28T10:33:32.947Z,1024.94
2018-11-28T10:34:32.907Z,1024.94
2018-11-28T10:35:32.917Z,1024.93
2018-11-28T10:36:32.825Z,1024.89
2018-11-28T10:37:32.785Z,1024.88
2018-11-28T10:38:32.744Z,1024.88
2018-11-28T10:39:32.702Z,1024.87
2018-11-28T10:40:32.662Z,1024.86
2018-11-28T10:41:32.622Z,1024.86
2018-11-28T10:42:32.581Z,1024.88
2018-11-28T10:43:32.541Z,1024.88
2018-11-28T10:44:32.499Z,1024.85
2018-11-28T10:45:32.457Z,1024.86
2018-11-28T10:46:32.416Z,1024.85
2018-11-28T10:47:32.377Z,1024.77
2018-11-28T10:48:32.334Z,1024.73
2018-11-28T10:49:32.293Z,1024.75
2018-11-28T10:50:32.253Z,1024.74
2018-11-28T10:51:32.210Z,1024.78
2018-11-28T10:52:32.172Z,1024.87
2018-11-28T10:53:32.129Z,1024.76
2018-11-28T10:54:32.088Z,1024.77
2018-11-28T10:55:32.048Z,1024.71
2018-11-28T10:56:32.004Z,1024.76
2018-11-28T10:57:31.962Z,1024.75
2018-11-28T10:58:31.920Z,1024.79
2018-11-28T10:59:31.896Z,1024.87
2018-11-28T11:00:31.846Z,1024.80
2018-11-28T11:01:31.796Z,1024.75
2018-11-28T11:02:31.754Z,1024.84
2018-11-28T11:03:31.711Z,1024.77
2018-11-28T11:04:31.719Z,1024.84
2018-11-28T11:05:31.629Z,1024.82
2018-11-28T11:06:31.587Z,1024.79
2018-11-28T11:07:31.550Z,1024.75
2018-11-28T11:08:31.502Z,1024.77
2018-11-28T11:09:31.460Z,1024.79
2018-11-28T11:10:31.419Z,1024.88
2018-11-28T11:11:31.376Z,1024.86
2018-11-28T11:12:31.334Z,1024.86
2018-11-28T11:13:31.291Z,1024.81
2018-11-28T11:14:31.252Z,1024.81
2018-11-28T11:15:31.209Z,1024.80
2018-11-28T11:16:31.169Z,1024.78
2018-11-28T11:17:31.125Z,1024.81
2018-11-28T11:18:31.082Z,1024.82
2018-11-28T11:19:31.038Z,1024.74
2018-11-28T11:20:30.996Z,1024.73
2018-11-28T11:21:30.955Z,1024.78
2018-11-28T11:22:30.915Z,1024.72
2018-11-28T11:23:30.869Z,1024.72
2018-11-28T11:24:30.827Z,1024.75
2018-11-28T11:25:30.785Z,1024.71
2018-11-28T11:26:30.746Z,1024.79
2018-11-28T11:27:30.700Z,1024.69
2018-11-28T11:28:30.659Z,1024.75
2018-11-28T11:29:30.618Z,1024.72
2018-11-28T11:30:30.649Z,1024.65
2018-11-28T11:31:30.532Z,1024.68
2018-11-28T11:32:30.489Z,1024.68
2018-11-28T11:33:30.449Z,1024.69
2018-11-28T11:34:30.434Z,1024.65
2018-11-28T11:35:30.364Z,1024.69
2018-11-28T11:36:30.323Z,1024.66
2018-11-28T11:37:30.281Z,1024.72
2018-11-28T11:38:30.239Z,1024.75
2018-11-28T11:39:30.196Z,1024.74
2018-11-28T11:40:30.154Z,1024.83
2018-11-28T11:41:30.113Z,1024.74
2018-11-28T11:42:30.071Z,1024.72
2018-11-28T11:43:30.029Z,1024.67
2018-11-28T11:44:29.995Z,1024.76
2018-11-28T11:45:29.948Z,1024.76
2018-11-28T11:46:29.905Z,1024.67
2018-11-28T11:47:29.863Z,1024.67
2018-11-28T11:48:29.821Z,1024.67
2018-11-28T11:49:29.880Z,1024.67
2018-11-28T11:50:29.741Z,1024.64
2018-11-28T11:51:29.695Z,1024.65
2018-11-28T11:52:29.653Z,1024.65
2018-11-28T11:53:29.663Z,1024.61
2018-11-28T11:54:29.572Z,1024.66
2018-11-28T11:55:29.530Z,1024.69
2018-11-28T11:56:29.490Z,1024.68
2018-11-28T11:57:29.447Z,1024.70
2018-11-28T11:58:29.406Z,1024.69
2018-11-28T11:59:29.363Z,1024.71
2018-11-28T12:00:29.324Z,1024.67
2018-11-28T12:01:29.290Z,1024.63
2018-11-28T12:02:29.240Z,1024.60
2018-11-28T12:03:29.197Z,1024.56
2018-11-28T12:04:29.156Z,1024.55